createdAt,value
2023-05-17T00:01:48.460Z,15.63
2023-05-17T00:04:16.614Z,12.80
2023-05-17T00:06:44.236Z,15.90
2023-05-17T00:09:11.985Z,16.33
2023-05-17T00:11:39.483Z,15.40
2023-05-17T00:14:06.706Z,15.77
2023-05-17T00:16:34.043Z,16.77
2023-05-17T00:19:01.717Z,17.20
2023-05-17T00:21:28.709Z,17.15
2023-05-17T00:23:56.337Z,16.52
2023-05-17T00:26:23.613Z,16.70
2023-05-17T00:28:50.909Z,20.38
2023-05-17T00:31:18.523Z,16.95
2023-05-17T00:33:47.759Z,20.13
2023-05-17T00:36:14.676Z,18.17
2023-05-17T00:38:42.050Z,19.35
2023-05-17T00:41:09.429Z,18.88
2023-05-17T00:43:37.304Z,18.67
2023-05-17T00:46:04.756Z,18.02
2023-05-17T00:48:32.993Z,18.08
2023-05-17T00:51:00.334Z,18.20
2023-05-17T00:53:28.826Z,18.15
2023-05-17T00:55:56.599Z,20.67
2023-05-17T00:58:24.384Z,19.67
2023-05-17T01:00:52.994Z,17.60
2023-05-17T01:03:22.909Z,17.13
2023-05-17T01:05:51.711Z,18.45
2023-05-17T01:08:19.124Z,22.60
2023-05-17T01:11:03.054Z,23.50
2023-05-17T01:13:53.581Z,19.33
2023-05-17T01:17:16.861Z,19.55
2023-05-17T01:19:56.991Z,19.83
2023-05-17T01:22:51.133Z,22.50
2023-05-17T01:25:23.421Z,22.27
2023-05-17T01:27:52.223Z,22.23
2023-05-17T01:30:20.888Z,20.55
2023-05-17T01:32:47.921Z,27.10
2023-05-17T01:35:16.279Z,26.75
2023-05-17T01:37:43.244Z,31.80
2023-05-17T01:40:11.148Z,27.88
2023-05-17T01:42:42.568Z,27.38
2023-05-17T01:45:18.111Z,27.42
2023-05-17T01:47:57.191Z,28.52
2023-05-17T01:50:29.534Z,28.92
2023-05-17T01:53:05.846Z,27.85
2023-05-17T01:55:36.362Z,27.52
2023-05-17T01:58:07.512Z,28.38
2023-05-17T02:00:36.402Z,36.33
2023-05-17T02:03:03.360Z,26.83
2023-05-17T02:05:31.014Z,27.52
2023-05-17T02:07:58.018Z,27.30
2023-05-17T02:10:25.566Z,25.02
2023-05-17T02:12:52.669Z,26.05
2023-05-17T02:15:20.915Z,29.42
2023-05-17T02:17:48.019Z,25.67
2023-05-17T02:20:15.564Z,27.92
2023-05-17T02:22:42.564Z,27.73
2023-05-17T02:25:10.056Z,25.33
2023-05-17T02:27:37.027Z,26.45
2023-05-17T02:30:04.856Z,24.40
2023-05-17T02:32:32.303Z,22.88
2023-05-17T02:35:00.135Z,29.13
2023-05-17T02:37:27.135Z,26.55
2023-05-17T02:39:54.494Z,24.33
2023-05-17T02:42:21.453Z,24.92
2023-05-17T02:44:52.911Z,25.02
2023-05-17T02:47:21.344Z,25.58
2023-05-17T02:49:48.912Z,25.23
2023-05-17T02:52:16.347Z,24.77
2023-05-17T02:54:44.209Z,23.98
2023-05-17T02:57:11.655Z,27.55
2023-05-17T02:59:39.188Z,23.52
2023-05-17T03:02:06.817Z,25.80
2023-05-17T03:04:34.534Z,31.27
2023-05-17T03:07:01.658Z,27.05
2023-05-17T03:09:30.272Z,24.95
2023-05-17T03:11:58.086Z,30.15
2023-05-17T03:14:29.720Z,26.70
2023-05-17T03:16:57.085Z,25.60
2023-05-17T03:19:25.004Z,24.80
2023-05-17T03:21:53.035Z,25.83
2023-05-17T03:24:21.149Z,25.45
2023-05-17T03:26:48.589Z,23.88
2023-05-17T03:29:16.050Z,23.83
2023-05-17T03:31:44.545Z,21.30
2023-05-17T03:34:13.026Z,24.52
2023-05-17T03:36:40.784Z,25.85
2023-05-17T03:39:09.213Z,23.67
2023-05-17T03:41:38.976Z,24.13
2023-05-17T03:44:06.217Z,24.13
2023-05-17T03:46:34.386Z,23.15
2023-05-17T03:49:01.755Z,23.08
2023-05-17T03:51:30.893Z,20.45
2023-05-17T03:53:59.935Z,22.70
2023-05-17T03:56:28.449Z,23.38
2023-05-17T03:58:55.822Z,22.20
2023-05-17T04:01:23.843Z,22.08
2023-05-17T04:03:51.123Z,22.13
2023-05-17T04:06:20.335Z,20.85
2023-05-17T04:08:47.664Z,22.17
2023-05-17T04:11:15.023Z,22.23
2023-05-17T04:13:43.452Z,20.08
2023-05-17T04:16:10.937Z,23.10
2023-05-17T04:18:41.527Z,24.60
2023-05-17T04:21:09.456Z,20.27
2023-05-17T04:23:37.838Z,20.52
2023-05-17T04:26:06.267Z,24.30
2023-05-17T04:28:36.858Z,22.52
2023-05-17T04:31:08.248Z,21.15
2023-05-17T04:33:37.122Z,18.00
2023-05-17T04:36:05.662Z,21.15
2023-05-17T04:38:33.559Z,20.35
2023-05-17T04:41:04.908Z,21.38
2023-05-17T04:43:34.628Z,20.45
2023-05-17T04:46:05.595Z,18.08
2023-05-17T04:48:33.990Z,17.40
2023-05-17T04:51:02.620Z,18.02
2023-05-17T04:53:30.910Z,18.05
2023-05-17T04:55:59.664Z,18.15
2023-05-17T04:58:28.267Z,19.58
2023-05-17T05:00:58.819Z,18.77
2023-05-17T05:03:26.618Z,22.48
2023-05-17T05:05:54.560Z,18.83
2023-05-17T05:08:22.412Z,18.10
2023-05-17T05:10:50.010Z,18.88
2023-05-17T05:13:18.412Z,17.02
2023-05-17T05:15:45.860Z,18.50
2023-05-17T05:18:13.289Z,16.20
2023-05-17T05:20:40.277Z,16.92
2023-05-17T05:23:08.040Z,14.15
2023-05-17T05:25:37.916Z,13.02
2023-05-17T05:28:06.213Z,16.48
2023-05-17T05:30:34.963Z,14.00
2023-05-17T05:33:02.718Z,15.50
2023-05-17T05:35:30.674Z,16.58
2023-05-17T05:38:00.079Z,13.55
2023-05-17T05:40:27.593Z,13.60
2023-05-17T05:42:56.396Z,13.85
2023-05-17T05:45:23.372Z,13.52
2023-05-17T05:47:53.825Z,15.82
2023-05-17T05:50:21.017Z,15.65
2023-05-17T05:52:49.915Z,12.25
2023-05-17T05:55:17.197Z,13.13
2023-05-17T05:57:44.411Z,12.27
2023-05-17T06:00:12.765Z,13.77
2023-05-17T06:02:42.786Z,13.95
2023-05-17T06:05:10.199Z,10.32
2023-05-17T06:07:37.662Z,10.27
2023-05-17T06:10:05.946Z,10.63
2023-05-17T06:12:35.304Z,10.63
2023-05-17T06:15:03.102Z,11.48
2023-05-17T06:17:30.774Z,10.98
2023-05-17T06:19:57.737Z,10.43
2023-05-17T06:22:25.405Z,11.68
2023-05-17T06:24:52.484Z,12.52
2023-05-17T06:27:19.759Z,9.00
2023-05-17T06:29:47.064Z,9.93
2023-05-17T06:32:14.593Z,10.48
2023-05-17T06:34:42.439Z,9.07
2023-05-17T06:37:09.819Z,11.75
2023-05-17T06:39:37.323Z,11.00
2023-05-17T06:42:05.182Z,10.63
2023-05-17T06:44:36.369Z,11.35
2023-05-17T06:47:04.200Z,9.15
2023-05-17T06:49:31.580Z,12.43
2023-05-17T06:52:03.396Z,11.48
2023-05-17T06:54:30.921Z,14.75
2023-05-17T06:57:02.166Z,11.35
2023-05-17T06:59:29.303Z,14.27
2023-05-17T07:01:56.907Z,13.02
2023-05-17T07:04:24.075Z,14.18
2023-05-17T07:06:52.348Z,11.55
2023-05-17T07:09:21.152Z,9.98
2023-05-17T07:11:48.599Z,12.32
2023-05-17T07:14:15.748Z,10.48
2023-05-17T07:16:43.699Z,9.27
2023-05-17T07:19:10.851Z,9.30
2023-05-17T07:21:38.500Z,12.85
2023-05-17T07:24:05.889Z,10.93
2023-05-17T07:26:33.746Z,9.82
2023-05-17T07:29:01.196Z,11.35
2023-05-17T07:31:28.791Z,10.93
2023-05-17T07:33:55.934Z,10.90
2023-05-17T07:36:23.304Z,8.85
2023-05-17T07:38:50.448Z,8.75
2023-05-17T07:41:21.801Z,11.05
2023-05-17T07:43:50.010Z,10.10
2023-05-17T07:46:17.969Z,9.90
2023-05-17T07:48:45.819Z,9.52
2023-05-17T07:51:13.398Z,12.23
2023-05-17T07:53:41.179Z,9.38
2023-05-17T07:56:08.429Z,11.85
2023-05-17T07:58:36.431Z,10.65
2023-05-17T08:01:04.195Z,10.60
2023-05-17T08:03:31.540Z,9.45
2023-05-17T08:05:58.968Z,10.73
2023-05-17T08:08:29.548Z,11.98
2023-05-17T08:10:57.248Z,11.50
2023-05-17T08:13:24.448Z,10.00
2023-05-17T08:15:58.453Z,8.90
2023-05-17T08:18:33.513Z,10.43
2023-05-17T08:21:00.993Z,10.70
2023-05-17T08:23:27.957Z,11.68
2023-05-17T08:25:56.484Z,10.52
2023-05-17T08:28:23.404Z,10.02
2023-05-17T08:30:50.898Z,9.77
2023-05-17T08:33:18.280Z,9.35
2023-05-17T08:35:45.845Z,10.63
2023-05-17T08:38:13.368Z,7.82
2023-05-17T08:40:41.376Z,9.95
2023-05-17T08:43:11.986Z,6.95
2023-05-17T08:45:39.791Z,10.32
2023-05-17T08:48:07.784Z,8.25
2023-05-17T08:50:36.038Z,9.35
2023-05-17T08:53:04.343Z,7.55
2023-05-17T08:55:33.271Z,12.52
2023-05-17T08:58:01.303Z,7.22
2023-05-17T09:00:29.104Z,9.55
2023-05-17T09:02:57.133Z,9.05
2023-05-17T09:05:25.561Z,8.93
2023-05-17T09:07:53.957Z,7.63
2023-05-17T09:10:22.002Z,8.07
2023-05-17T09:12:49.291Z,8.55
2023-05-17T09:15:18.603Z,7.78
2023-05-17T09:17:53.790Z,9.38
2023-05-17T09:20:25.571Z,9.18
2023-05-17T09:25:23.750Z,12.05
2023-05-17T09:27:54.590Z,9.47
2023-05-17T09:30:29.487Z,8.77
2023-05-17T09:33:00.405Z,10.00
2023-05-17T09:35:31.957Z,11.77
2023-05-17T09:38:09.596Z,10.73
2023-05-17T09:40:41.473Z,9.50
2023-05-17T09:43:09.589Z,9.52
2023-05-17T09:45:38.480Z,11.95
2023-05-17T09:48:16.945Z,12.45
2023-05-17T09:50:54.334Z,14.90
2023-05-17T09:53:40.074Z,14.77
2023-05-17T09:56:08.126Z,11.60
2023-05-17T09:58:37.416Z,10.75
2023-05-17T10:01:09.853Z,11.48
2023-05-17T10:03:38.368Z,11.68
2023-05-17T10:06:19.856Z,13.02
2023-05-17T10:08:58.575Z,12.60
2023-05-17T10:11:34.438Z,15.00
2023-05-17T10:14:13.457Z,14.52
2023-05-17T10:16:41.685Z,13.70
2023-05-17T10:19:11.609Z,14.45
2023-05-17T10:21:40.583Z,14.75
2023-05-17T10:24:08.531Z,15.18
2023-05-17T10:26:36.660Z,22.40
2023-05-17T10:29:05.412Z,15.18
2023-05-17T10:31:34.049Z,17.45
2023-05-17T10:36:31.219Z,19.85
2023-05-17T10:38:59.785Z,17.27
2023-05-17T10:41:32.297Z,20.20
2023-05-17T10:44:01.014Z,19.67
2023-05-17T10:46:30.027Z,17.88
2023-05-17T10:48:59.299Z,16.88
2023-05-17T10:51:31.554Z,17.38
2023-05-17T10:54:04.766Z,18.52
2023-05-17T10:56:33.444Z,21.05
2023-05-17T10:59:20.043Z,17.52
2023-05-17T11:01:54.768Z,23.13
2023-05-17T11:04:24.441Z,17.65
2023-05-17T11:06:53.498Z,17.38
2023-05-17T11:09:23.926Z,23.55
2023-05-17T11:12:06.165Z,20.48
2023-05-17T11:14:46.016Z,21.77
2023-05-17T11:17:20.417Z,22.42
2023-05-17T11:20:03.198Z,17.38
2023-05-17T11:22:42.629Z,19.15
2023-05-17T11:25:13.788Z,19.38
2023-05-17T11:30:29.877Z,18.90
2023-05-17T11:33:01.632Z,22.95
2023-05-17T11:35:37.258Z,23.23
2023-05-17T11:38:19.419Z,22.48
2023-05-17T11:40:49.467Z,21.52
2023-05-17T11:43:19.194Z,17.10
2023-05-17T11:45:53.198Z,17.27
2023-05-17T11:48:23.054Z,20.15
2023-05-17T11:50:51.939Z,18.58
2023-05-17T11:53:19.918Z,18.13
2023-05-17T11:55:51.885Z,18.38
2023-05-17T11:58:27.337Z,17.65
2023-05-17T12:00:57.135Z,14.35
2023-05-17T12:03:26.598Z,20.63
2023-05-17T12:06:11.603Z,17.50
2023-05-17T12:08:43.073Z,21.23
2023-05-17T12:11:17.706Z,17.38
2023-05-17T12:13:47.029Z,15.73
2023-05-17T12:16:17.896Z,14.23
2023-05-17T12:21:16.571Z,20.98
2023-05-17T12:23:51.282Z,21.27
2023-05-17T12:26:23.088Z,20.17
2023-05-17T12:29:00.429Z,19.27
2023-05-17T12:31:42.410Z,18.15
2023-05-17T12:34:12.926Z,24.23
2023-05-17T12:36:40.981Z,14.68
2023-05-17T12:39:10.117Z,16.40
2023-05-17T12:41:38.747Z,21.90
2023-05-17T12:46:39.855Z,26.40
2023-05-17T12:49:11.915Z,16.98
2023-05-17T12:51:43.665Z,15.60
2023-05-17T12:54:13.203Z,24.77
2023-05-17T12:56:46.639Z,18.23
2023-05-17T12:59:20.987Z,17.63
2023-05-17T13:01:53.646Z,25.98
2023-05-17T13:04:21.502Z,22.65
2023-05-17T13:06:51.274Z,15.48
2023-05-17T13:09:21.472Z,21.05
2023-05-17T13:11:52.287Z,18.23
2023-05-17T13:14:38.662Z,26.25
2023-05-17T13:17:08.480Z,16.15
2023-05-17T13:19:37.200Z,20.23
2023-05-17T13:22:08.654Z,16.08
2023-05-17T13:24:38.173Z,18.33
2023-05-17T13:27:06.106Z,22.80
2023-05-17T13:29:40.596Z,19.42
2023-05-17T13:32:11.299Z,19.95
2023-05-17T13:34:40.596Z,27.83
2023-05-17T13:37:11.546Z,21.98
2023-05-17T13:39:41.904Z,26.33
2023-05-17T13:42:11.149Z,18.80
2023-05-17T13:44:39.769Z,22.95
2023-05-17T13:47:07.112Z,20.98
2023-05-17T13:49:35.493Z,17.15
2023-05-17T13:52:03.735Z,20.23
2023-05-17T13:54:31.630Z,17.75
2023-05-17T13:56:59.049Z,18.40
2023-05-17T13:59:26.922Z,18.90
2023-05-17T14:01:54.333Z,18.17
2023-05-17T14:04:22.287Z,21.83
2023-05-17T14:06:50.766Z,19.80
2023-05-17T14:09:20.458Z,18.17
2023-05-17T14:11:47.492Z,16.38
2023-05-17T14:14:14.916Z,20.98
2023-05-17T14:16:41.965Z,21.80
2023-05-17T14:19:09.730Z,17.55
2023-05-17T14:21:37.127Z,21.00
2023-05-17T14:24:05.104Z,19.13
2023-05-17T14:26:32.556Z,19.45
2023-05-17T14:29:00.477Z,22.02
2023-05-17T14:31:29.908Z,19.13
2023-05-17T14:33:57.574Z,18.70
2023-05-17T14:36:24.597Z,15.65
2023-05-17T14:38:52.227Z,17.98
2023-05-17T14:41:19.309Z,26.42
2023-05-17T14:43:46.827Z,21.27
2023-05-17T14:46:15.259Z,15.27
2023-05-17T14:48:42.909Z,19.13
2023-05-17T14:51:10.207Z,17.75
2023-05-17T14:53:37.772Z,21.50
2023-05-17T14:56:05.011Z,18.90
2023-05-17T14:58:32.780Z,24.10
2023-05-17T15:01:05.287Z,20.13
2023-05-17T15:03:35.160Z,18.25
2023-05-17T15:06:06.323Z,17.77
2023-05-17T15:08:36.585Z,18.20
2023-05-17T15:11:03.545Z,25.50
2023-05-17T15:13:32.402Z,31.52
2023-05-17T15:15:59.600Z,21.80
2023-05-17T15:18:26.850Z,27.40
2023-05-17T15:20:53.833Z,20.08
2023-05-17T15:23:21.556Z,22.35
2023-05-17T15:25:48.761Z,16.90
2023-05-17T15:28:19.947Z,17.67
2023-05-17T15:30:47.941Z,17.80
2023-05-17T15:33:16.085Z,17.20
2023-05-17T15:35:44.649Z,15.93
2023-05-17T15:38:12.383Z,18.10
2023-05-17T15:40:39.418Z,13.35
2023-05-17T15:43:06.741Z,14.02
2023-05-17T15:45:33.972Z,14.95
2023-05-17T15:48:02.374Z,18.65
2023-05-17T15:50:29.764Z,17.65
2023-05-17T15:52:57.010Z,14.57
2023-05-17T15:55:24.549Z,13.88
2023-05-17T15:57:52.018Z,12.40
2023-05-17T16:00:20.308Z,15.13
2023-05-17T16:02:47.690Z,12.38
2023-05-17T16:05:14.857Z,13.48
2023-05-17T16:07:42.657Z,13.82
2023-05-17T16:10:10.108Z,15.52
2023-05-17T16:12:37.664Z,15.27
2023-05-17T16:15:04.941Z,13.20
2023-05-17T16:17:32.520Z,17.55
2023-05-17T16:19:59.705Z,14.85
2023-05-17T16:22:28.016Z,18.85
2023-05-17T16:24:55.355Z,15.75
2023-05-17T16:27:22.868Z,15.23
2023-05-17T16:29:49.789Z,15.52
2023-05-17T16:32:17.729Z,16.65
2023-05-17T16:34:44.961Z,16.08
2023-05-17T16:37:12.379Z,18.35
2023-05-17T16:39:39.523Z,17.20
2023-05-17T16:42:07.280Z,13.65
2023-05-17T16:44:34.443Z,18.50
2023-05-17T16:47:01.881Z,18.00
2023-05-17T16:49:30.521Z,16.55
2023-05-17T16:51:57.708Z,12.90
2023-05-17T16:54:28.162Z,13.77
2023-05-17T16:56:56.450Z,20.20
2023-05-17T16:59:23.738Z,17.00
2023-05-17T17:01:51.903Z,19.83
2023-05-17T17:04:19.157Z,18.80
2023-05-17T17:06:46.653Z,12.63
2023-05-17T17:09:14.244Z,15.02
2023-05-17T17:11:42.016Z,12.27
2023-05-17T17:14:09.119Z,14.30
2023-05-17T17:16:36.820Z,14.45
2023-05-17T17:19:04.979Z,18.75
2023-05-17T17:21:36.962Z,11.70
2023-05-17T17:24:07.450Z,16.02
2023-05-17T17:26:35.552Z,12.83
2023-05-17T17:29:04.187Z,14.88
2023-05-17T17:31:32.365Z,15.45
2023-05-17T17:33:59.852Z,20.88
2023-05-17T17:36:27.158Z,13.27
2023-05-17T17:38:54.343Z,15.10
2023-05-17T17:41:21.899Z,11.68
2023-05-17T17:43:49.743Z,13.10
2023-05-17T17:46:17.134Z,9.55
2023-05-17T17:48:44.511Z,13.55
2023-05-17T17:51:12.014Z,13.32
2023-05-17T17:53:41.588Z,12.02
2023-05-17T17:56:08.959Z,13.85
2023-05-17T17:58:36.654Z,15.00
2023-05-17T18:01:04.523Z,12.15
2023-05-17T18:03:31.730Z,17.20
2023-05-17T18:05:58.893Z,14.15
2023-05-17T18:08:27.728Z,12.52
2023-05-17T18:10:55.433Z,13.77
2023-05-17T18:13:22.959Z,12.27
2023-05-17T18:15:50.373Z,10.68
2023-05-17T18:18:17.596Z,12.30
2023-05-17T18:20:44.898Z,9.45
2023-05-17T18:23:12.332Z,10.27
2023-05-17T18:25:39.643Z,11.57
2023-05-17T18:28:09.056Z,11.45
2023-05-17T18:30:36.401Z,14.13
2023-05-17T18:33:04.092Z,10.95
2023-05-17T18:35:31.542Z,12.15
2023-05-17T18:38:00.092Z,12.05
2023-05-17T18:40:27.846Z,16.27
2023-05-17T18:42:55.275Z,18.42
2023-05-17T18:45:22.799Z,12.95
2023-05-17T18:47:50.205Z,12.30
2023-05-17T18:50:17.893Z,15.73
2023-05-17T18:52:44.923Z,23.20
2023-05-17T18:55:12.179Z,13.88
2023-05-17T18:57:39.307Z,10.88
2023-05-17T19:00:07.526Z,14.98
2023-05-17T19:02:34.857Z,15.55
2023-05-17T19:05:02.480Z,10.50
2023-05-17T19:07:29.567Z,15.68
2023-05-17T19:09:57.154Z,10.35
2023-05-17T19:12:24.308Z,10.93
2023-05-17T19:14:51.811Z,13.60
2023-05-17T19:17:18.814Z,10.02
2023-05-17T19:19:46.538Z,12.30
2023-05-17T19:22:14.407Z,14.55
2023-05-17T19:24:42.178Z,9.73
2023-05-17T19:27:11.013Z,16.33
2023-05-17T19:29:38.834Z,13.68
2023-05-17T19:32:06.434Z,12.85
2023-05-17T19:34:34.294Z,16.25
2023-05-17T19:37:01.601Z,10.65
2023-05-17T19:39:28.911Z,15.85
2023-05-17T19:41:56.146Z,13.85
2023-05-17T19:44:23.625Z,12.65
2023-05-17T19:46:50.711Z,12.38
2023-05-17T19:49:18.047Z,15.82
2023-05-17T19:51:46.769Z,16.83
2023-05-17T19:54:14.576Z,11.13
2023-05-17T19:56:41.784Z,15.38
2023-05-17T19:59:09.225Z,13.70
2023-05-17T20:01:36.427Z,12.52
2023-05-17T20:04:03.769Z,16.50
2023-05-17T20:06:31.093Z,14.02
2023-05-17T20:08:58.286Z,17.40
2023-05-17T20:11:25.862Z,14.55
2023-05-17T20:13:53.255Z,10.63
2023-05-17T20:16:20.638Z,13.30
2023-05-17T20:18:48.497Z,12.60
2023-05-17T20:21:19.879Z,14.90
2023-05-17T20:26:18.918Z,15.40
2023-05-17T20:28:46.483Z,13.05
2023-05-17T20:31:13.859Z,19.67
2023-05-17T20:33:41.377Z,14.48
2023-05-17T20:36:11.028Z,14.93
2023-05-17T20:38:38.718Z,14.07
2023-05-17T20:41:07.548Z,11.85
2023-05-17T20:43:35.315Z,14.95
2023-05-17T20:46:09.961Z,12.63
2023-05-17T20:48:39.747Z,17.48
2023-05-17T20:51:06.846Z,19.08
2023-05-17T20:53:34.159Z,12.63
2023-05-17T20:56:01.260Z,13.93
2023-05-17T20:58:29.181Z,14.23
2023-05-17T21:00:57.189Z,19.35
2023-05-17T21:03:28.514Z,17.77
2023-05-17T21:05:56.133Z,15.07
2023-05-17T21:08:23.509Z,13.40
2023-05-17T21:10:50.828Z,12.48
2023-05-17T21:13:18.193Z,11.75
2023-05-17T21:15:46.595Z,20.85
2023-05-17T21:18:13.769Z,14.13
2023-05-17T21:20:41.096Z,17.95
2023-05-17T21:23:08.440Z,19.27
2023-05-17T21:25:35.960Z,13.60
2023-05-17T21:28:04.473Z,18.02
2023-05-17T21:30:31.653Z,19.75
2023-05-17T21:32:59.557Z,15.13
2023-05-17T21:35:26.572Z,20.63
2023-05-17T21:37:53.867Z,19.20
2023-05-17T21:40:20.826Z,14.95
2023-05-17T21:42:48.221Z,19.55
2023-05-17T21:45:16.045Z,15.50
2023-05-17T21:47:43.515Z,11.27
2023-05-17T21:50:11.116Z,15.77
2023-05-17T21:52:38.313Z,16.33
2023-05-17T21:55:06.228Z,14.00
2023-05-17T21:57:36.270Z,10.98
2023-05-17T22:00:05.181Z,13.70
2023-05-17T22:02:36.061Z,11.38
2023-05-17T22:05:03.671Z,12.75
2023-05-17T22:07:30.906Z,14.65
2023-05-17T22:09:58.510Z,14.43
2023-05-17T22:12:27.101Z,12.60
2023-05-17T22:14:56.124Z,11.05
2023-05-17T22:17:35.146Z,18.90
2023-05-17T22:20:10.607Z,12.48
2023-05-17T22:22:38.331Z,14.27
2023-05-17T22:25:06.839Z,9.43
2023-05-17T22:27:34.674Z,12.75
2023-05-17T22:30:01.764Z,15.55
2023-05-17T22:32:29.310Z,11.43
2023-05-17T22:34:56.451Z,10.18
2023-05-17T22:37:24.025Z,17.35
2023-05-17T22:39:51.149Z,17.27
2023-05-17T22:42:19.005Z,13.95
2023-05-17T22:44:46.171Z,13.32
2023-05-17T22:47:14.829Z,11.38
2023-05-17T22:49:42.381Z,16.95
2023-05-17T22:52:11.234Z,12.10
2023-05-17T22:54:38.921Z,11.45
2023-05-17T22:57:06.777Z,12.40
2023-05-17T22:59:33.844Z,13.38
2023-05-17T23:02:04.103Z,11.85
2023-05-17T23:04:31.530Z,15.27
2023-05-17T23:07:04.962Z,11.52
2023-05-17T23:09:33.932Z,16.30
2023-05-17T23:12:05.764Z,10.25
2023-05-17T23:14:34.392Z,10.80
2023-05-17T23:17:05.079Z,12.15
2023-05-17T23:19:33.219Z,14.87
2023-05-17T23:22:06.427Z,14.20
2023-05-17T23:24:39.228Z,11.82
2023-05-17T23:27:10.030Z,10.43
2023-05-17T23:29:37.524Z,12.75
2023-05-17T23:32:05.362Z,11.18
2023-05-17T23:34:32.889Z,16.13
2023-05-17T23:37:00.390Z,13.55
2023-05-17T23:39:27.474Z,11.13
2023-05-17T23:41:54.732Z,10.15
2023-05-17T23:44:21.977Z,12.15
2023-05-17T23:46:51.305Z,10.20
2023-05-17T23:49:19.570Z,8.45
2023-05-17T23:51:47.322Z,6.50
2023-05-17T23:54:16.070Z,8.98
2023-05-17T23:56:43.710Z,9.82
2023-05-17T23:59:12.528Z,12.93
